This is the latest recevied weather packets stored in our database for station/object S53BL-10. If no packets are shown the sender has not sent any weather packets the latest 10 day(s).
| Time | Temp. | Humidity | Pressure | Rain* | Wind** | Luminosity | Snow |
|---|---|---|---|---|---|---|---|
| 1777512069 | 4.44° C | 99% | 1023 hPa | - | - | - | - |
| 1777511168 | 5° C | 99% | 1022.8 hPa | - | - | - | - |
| 1777509366 | 5.56° C | 99% | 1022.7 hPa | - | - | - | - |
| 1777508466 | 5.56° C | 100% | 1022.8 hPa | - | - | - | - |
| 1777507565 | 5.56° C | 100% | 1022.7 hPa | - | - | - | - |
| 1777506664 | 5.56° C | 100% | 1022.6 hPa | - | - | - | - |
| 1777499458 | 7.22° C | 100% | 1021.2 hPa | - | - | - | - |
| 1777498557 | 7.22° C | 100% | 1021.2 hPa | - | - | - | - |
| 1777491350 | 7.78° C | 100% | 1020.3 hPa | - | - | - | - |
| 1777485946 | 8.33° C | 100% | 1019.4 hPa | - | - | - | - |
| 1777480541 | 9.44° C | 94% | 1018.6 hPa | - | - | - | - |
| 1777476938 | 10° C | 95% | 1018.5 hPa | - | - | - | - |
| 1777476036 | 10° C | 100% | 1018.6 hPa | - | - | - | - |
| 1777473334 | 10.56° C | 98% | 1018.6 hPa | - | - | - | - |
| 1777468830 | 10.56° C | 99% | 1018.9 hPa | - | - | - | - |
| 1777467929 | 10.56° C | 98% | 1018.9 hPa | - | - | - | - |
| 1777465226 | 10° C | 93% | 1019 hPa | - | - | - | - |
| 1777463425 | 10.56° C | 99% | 1018.7 hPa | - | - | - | - |
| 1777462524 | 10.56° C | 100% | 1018.7 hPa | - | - | - | - |
| 1777461623 | 10.56° C | 100% | 1018.7 hPa | - | - | - | - |
| 1777459822 | 10.56° C | 100% | 1018.7 hPa | - | - | - | - |
| 1777458921 | 11.11° C | 100% | 1018.7 hPa | - | - | - | - |
| 1777458020 | 10.56° C | 100% | 1018.7 hPa | - | - | - | - |
| 1777457119 | 10.56° C | 100% | 1018.6 hPa | - | - | - | - |
| 1777455318 | 11.67° C | 92% | 1018.6 hPa | - | - | - | - |
* Rain since midnight (hover to see other rain measurements)
** Current wind speed in m/s (hover to see current wind gust speed)